Tetonia, ID (83424)

4:29 PM MDT on August 21, 2014 (GMT -0600)
ITD River Rim ID US | Change Station
CLOSE
Current Station
Personal Weather Station
Location: Felt, ID
Elevation: 6187 ft
Nearby Weather Stations

Elev 6187 ft 43.86 °N, 111.28 °W | Updated 59 minutes ago

Clear
Clear
60 °F
Feels Like 60 °F
N
5
Wind Variable Wind from East
Gusts 6.0 mph

Today
High -- | Low -- °F
--% Chance of Precip.
Yesterday
High -- | Low -- °F
Precip. -- in
6:35 AM 8:19 PM
Waning Crescent, 12% visible
Pressure 29.95 in
Visibility 10.0 miles
Clouds Clear
Dew Point 53 °F
Humidity 77%
Rainfall -999.00 in
Snow Depth Not available.
UV 7 out of 12
Pollen 7.80 out of 12
Air Quality Not available.
Flu Activity Not available.
METAR KDIJ 212156Z AUTO 27004KT 10SM CLR 19/09 A3017 RMK AO2 T01940094 SLP142

More Conditions Fewer Conditions

Pressure 29.95 in
Visibility 10.0 miles
Clouds Clear
Dew Point 53 °F
Humidity 77%
Rainfall -999.00 in
Snow Depth Not available.
UV 7 out of 12
Pollen 7.80 out of 12
Air Quality Not available.
Flu Activity Not available.
METAR KDIJ 212156Z AUTO 27004KT 10SM CLR 19/09 A3017 RMK AO2 T01940094 SLP142

More Conditions Fewer Conditions

10-Day Weather Forecast

Almanac

Astronomy

Aug. 21, 2014 Rise Set
Actual Time 6:35 AM MDT 8:19 PM MDT
Civil Twilight 6:05 AM MDT 8:49 PM MDT
Nautical Twilight 5:27 AM MDT 9:26 PM MDT
Astronomical Twilight 4:47 AM MDT 10:06 PM MDT
Moon 3:05 AM MDT 5:53 PM MDT
Length of Visible Light 14h 44m
Length of Day
13h 43m
Tomorrow will be 2m 47s shorter.
Waning Crescent, 12% of the Moon is Illuminated
Today
Waning Crescent
Aug 25
New
Sep 2
First Quarter
Sep 8
Full
Sep 15
Last Quarter

Today's Extremes

State Highs State Lows

Community

WunderPhotos

Upload Photos

1,746,038 photos uploaded!

WunderBlogs® & News

Nearby

Snow Depth

Station Depth Elevation
Sheep Mountain 0 in 6570 ft
Somsen Ranch 0 in 6800 ft
Wildhorse Divide 0 in 6490 ft
Hilts Creek 0 in 8000 ft
Oxford Spring 0 in 6740 ft

Earthquake Activity

City Distance Mag. Time & Date
No recent earthquake activity has been reported nearby.
Minimum magnitude displayed is 2.5.

Coastal Water Temperatures

Place Temperature
No Stations Reporting

Nearby Weather Stations